sensor_id;sensor_type;location;lat;lon;timestamp;pressure;altitude;pressure_sealevel;temperature;humidity
24892;BME280;12954;50.688;10.908;2023-03-26T00:01:32;94663.84;;;4.74;63.39
24892;BME280;12954;50.688;10.908;2023-03-26T00:04:03;94685.50;;;5.03;62.88
24892;BME280;12954;50.688;10.908;2023-03-26T00:06:34;94665.44;;;4.80;63.25
24892;BME280;12954;50.688;10.908;2023-03-26T00:09:06;94695.88;;;4.79;63.58
24892;BME280;12954;50.688;10.908;2023-03-26T00:11:37;94688.69;;;4.80;63.56
24892;BME280;12954;50.688;10.908;2023-03-26T00:14:05;94672.59;;;4.50;63.96
24892;BME280;12954;50.688;10.908;2023-03-26T00:16:35;94695.63;;;4.86;63.41
24892;BME280;12954;50.688;10.908;2023-03-26T00:19:03;94700.69;;;4.82;63.51
24892;BME280;12954;50.688;10.908;2023-03-26T00:21:32;94693.22;;;4.84;63.71
24892;BME280;12954;50.688;10.908;2023-03-26T00:24:02;94678.78;;;4.70;63.90
24892;BME280;12954;50.688;10.908;2023-03-26T00:26:32;94682.28;;;4.96;63.67
24892;BME280;12954;50.688;10.908;2023-03-26T00:29:02;94683.88;;;4.97;63.31
24892;BME280;12954;50.688;10.908;2023-03-26T00:31:33;94692.44;;;4.89;63.80
24892;BME280;12954;50.688;10.908;2023-03-26T00:34:01;94681.22;;;4.97;63.48
24892;BME280;12954;50.688;10.908;2023-03-26T00:36:31;94685.47;;;5.08;63.27
24892;BME280;12954;50.688;10.908;2023-03-26T00:39:02;94648.06;;;4.73;63.46
24892;BME280;12954;50.688;10.908;2023-03-26T00:41:32;94681.19;;;5.07;63.12
24892;BME280;12954;50.688;10.908;2023-03-26T00:44:04;94688.69;;;4.95;63.52
24892;BME280;12954;50.688;10.908;2023-03-26T00:46:33;94692.97;;;5.01;63.40
24892;BME280;12954;50.688;10.908;2023-03-26T00:49:02;94680.66;;;4.90;64.05
24892;BME280;12954;50.688;10.908;2023-03-26T00:51:32;94702.56;;;4.87;63.96
24892;BME280;12954;50.688;10.908;2023-03-26T00:54:00;94686.00;;;4.90;63.89
24892;BME280;12954;50.688;10.908;2023-03-26T00:56:29;94679.59;;;4.96;63.75
24892;BME280;12954;50.688;10.908;2023-03-26T00:58:58;94678.53;;;4.97;63.80
24892;BME280;12954;50.688;10.908;2023-03-26T01:01:28;94680.13;;;4.93;64.20
24892;BME280;12954;50.688;10.908;2023-03-26T01:04:20;94679.88;;;4.99;63.94
24892;BME280;12954;50.688;10.908;2023-03-26T01:06:54;94671.59;;;5.06;63.84
24892;BME280;12954;50.688;10.908;2023-03-26T01:09:30;94680.66;;;5.05;63.94
24892;BME280;12954;50.688;10.908;2023-03-26T01:12:00;94608.00;;;4.68;63.75
24892;BME280;12954;50.688;10.908;2023-03-26T01:14:29;94674.25;;;5.16;63.72
24892;BME280;12954;50.688;10.908;2023-03-26T01:17:00;94680.66;;;5.10;64.16
24892;BME280;12954;50.688;10.908;2023-03-26T01:19:34;94663.06;;;5.04;64.21
24892;BME280;12954;50.688;10.908;2023-03-26T01:22:06;94679.63;;;5.06;64.31
24892;BME280;12954;50.688;10.908;2023-03-26T01:24:38;94674.53;;;5.10;64.28
24892;BME280;12954;50.688;10.908;2023-03-26T01:27:13;94662.50;;;5.12;64.00
24892;BME280;12954;50.688;10.908;2023-03-26T01:29:50;94670.00;;;5.15;64.39
24892;BME280;12954;50.688;10.908;2023-03-26T01:32:49;94673.72;;;5.24;63.74
24892;BME280;12954;50.688;10.908;2023-03-26T01:35:30;94661.44;;;5.18;64.08
24892;BME280;12954;50.688;10.908;2023-03-26T01:38:08;94653.94;;;5.30;63.67
24892;BME280;12954;50.688;10.908;2023-03-26T01:40:46;94669.69;;;5.37;63.01
24892;BME280;12954;50.688;10.908;2023-03-26T01:43:24;94669.44;;;5.33;63.30
24892;BME280;12954;50.688;10.908;2023-03-26T01:45:55;94670.53;;;5.27;63.33
24892;BME280;12954;50.688;10.908;2023-03-26T01:48:32;94671.31;;;5.38;63.18
24892;BME280;12954;50.688;10.908;2023-03-26T01:51:02;94652.88;;;5.36;62.91
24892;BME280;12954;50.688;10.908;2023-03-26T01:53:32;94671.84;;;5.45;62.75
24892;BME280;12954;50.688;10.908;2023-03-26T01:56:08;94672.09;;;5.28;63.25
24892;BME280;12954;50.688;10.908;2023-03-26T01:58:47;94680.66;;;5.50;62.45
24892;BME280;12954;50.688;10.908;2023-03-26T02:01:25;94674.25;;;5.36;62.86
24892;BME280;12954;50.688;10.908;2023-03-26T02:04:00;94634.44;;;5.05;63.34
24892;BME280;12954;50.688;10.908;2023-03-26T02:06:39;94673.97;;;5.38;63.18
24892;BME280;12954;50.688;10.908;2023-03-26T02:09:13;94645.94;;;5.15;62.88
24892;BME280;12954;50.688;10.908;2023-03-26T02:11:45;94654.19;;;5.29;63.48
24892;BME280;12954;50.688;10.908;2023-03-26T02:14:15;94609.84;;;5.13;63.10
24892;BME280;12954;50.688;10.908;2023-03-26T02:16:44;94669.97;;;5.50;62.66
24892;BME280;12954;50.688;10.908;2023-03-26T02:19:14;94657.91;;;5.43;63.00
24892;BME280;12954;50.688;10.908;2023-03-26T02:21:48;94659.53;;;5.44;62.56
24892;BME280;12954;50.688;10.908;2023-03-26T02:24:17;94624.81;;;5.19;62.67
24892;BME280;12954;50.688;10.908;2023-03-26T02:26:47;94615.72;;;5.20;62.87
24892;BME280;12954;50.688;10.908;2023-03-26T02:29:16;94539.59;;;4.82;62.05
24892;BME280;12954;50.688;10.908;2023-03-26T02:31:46;94647.47;;;5.62;61.01
24892;BME280;12954;50.688;10.908;2023-03-26T02:34:15;94642.69;;;5.43;61.42
24892;BME280;12954;50.688;10.908;2023-03-26T02:36:44;94637.88;;;5.40;61.49
24892;BME280;12954;50.688;10.908;2023-03-26T02:39:12;94633.84;;;5.48;61.09
24892;BME280;12954;50.688;10.908;2023-03-26T02:41:41;94635.47;;;5.44;61.21
24892;BME280;12954;50.688;10.908;2023-03-26T02:44:10;94621.31;;;5.23;61.22
24892;BME280;12954;50.688;10.908;2023-03-26T02:46:39;94634.69;;;5.28;61.51
24892;BME280;12954;50.688;10.908;2023-03-26T02:49:07;94629.84;;;5.50;60.72
24892;BME280;12954;50.688;10.908;2023-03-26T02:51:35;94632.53;;;5.40;60.63
24892;BME280;12954;50.688;10.908;2023-03-26T02:54:04;94627.72;;;5.37;60.61
24892;BME280;12954;50.688;10.908;2023-03-26T02:56:33;94639.75;;;5.45;60.29
24892;BME280;12954;50.688;10.908;2023-03-26T02:59:02;94642.19;;;5.26;60.92
24892;BME280;12954;50.688;10.908;2023-03-26T03:01:32;94641.09;;;5.22;60.88
24892;BME280;12954;50.688;10.908;2023-03-26T03:04:01;94638.44;;;5.22;61.20
24892;BME280;12954;50.688;10.908;2023-03-26T03:06:30;94632.56;;;5.20;61.34
24892;BME280;12954;50.688;10.908;2023-03-26T03:08:58;94634.69;;;5.18;61.35
24892;BME280;12954;50.688;10.908;2023-03-26T03:11:28;94633.63;;;5.19;61.32
24892;BME280;12954;50.688;10.908;2023-03-26T03:13:56;94636.81;;;5.16;61.45
24892;BME280;12954;50.688;10.908;2023-03-26T03:16:25;94642.72;;;5.18;61.67
24892;BME280;12954;50.688;10.908;2023-03-26T03:18:56;94636.28;;;5.19;61.93
24892;BME280;12954;50.688;10.908;2023-03-26T03:21:25;94620.78;;;5.11;62.01
24892;BME280;12954;50.688;10.908;2023-03-26T03:23:54;94636.81;;;5.26;61.95
24892;BME280;12954;50.688;10.908;2023-03-26T03:26:26;94635.22;;;5.25;61.79
24892;BME280;12954;50.688;10.908;2023-03-26T03:28:56;94630.94;;;5.29;61.92
24892;BME280;12954;50.688;10.908;2023-03-26T03:31:25;94622.09;;;5.34;61.51
24892;BME280;12954;50.688;10.908;2023-03-26T03:33:55;94626.94;;;5.17;62.03
24892;BME280;12954;50.688;10.908;2023-03-26T03:36:24;94639.47;;;5.31;61.69
24892;BME280;12954;50.688;10.908;2023-03-26T03:38:56;94645.38;;;5.38;61.41
24892;BME280;12954;50.688;10.908;2023-03-26T03:41:28;94633.03;;;5.42;61.03
24892;BME280;12954;50.688;10.908;2023-03-26T03:43:57;94637.34;;;5.28;61.44
24892;BME280;12954;50.688;10.908;2023-03-26T03:46:27;94637.91;;;5.30;61.60
24892;BME280;12954;50.688;10.908;2023-03-26T03:48:57;94634.41;;;5.25;61.70
24892;BME280;12954;50.688;10.908;2023-03-26T03:51:26;94636.81;;;5.16;61.99
24892;BME280;12954;50.688;10.908;2023-03-26T03:53:54;94619.72;;;5.07;62.18
24892;BME280;12954;50.688;10.908;2023-03-26T03:56:23;94631.47;;;5.16;62.70
24892;BME280;12954;50.688;10.908;2023-03-26T03:58:52;94626.66;;;5.33;61.83
24892;BME280;12954;50.688;10.908;2023-03-26T04:01:20;94634.44;;;5.15;62.32
24892;BME280;12954;50.688;10.908;2023-03-26T04:03:49;94632.00;;;5.13;62.38
24892;BME280;12954;50.688;10.908;2023-03-26T04:06:19;94633.63;;;5.09;62.73
24892;BME280;12954;50.688;10.908;2023-03-26T04:08:47;94638.16;;;5.14;62.70
24892;BME280;12954;50.688;10.908;2023-03-26T04:11:16;94637.63;;;5.01;63.11
24892;BME280;12954;50.688;10.908;2023-03-26T04:13:44;94646.47;;;5.12;63.35
24892;BME280;12954;50.688;10.908;2023-03-26T04:16:13;94647.81;;;5.10;63.49
24892;BME280;12954;50.688;10.908;2023-03-26T04:18:43;94637.91;;;5.10;63.24
24892;BME280;12954;50.688;10.908;2023-03-26T04:21:12;94628.03;;;5.06;63.18
24892;BME280;12954;50.688;10.908;2023-03-26T04:23:43;94637.63;;;5.17;63.22
24892;BME280;12954;50.688;10.908;2023-03-26T04:26:14;94634.97;;;5.12;63.58
24892;BME280;12954;50.688;10.908;2023-03-26T04:28:47;94634.97;;;5.12;63.34
24892;BME280;12954;50.688;10.908;2023-03-26T04:31:18;94624.03;;;5.03;63.24
24892;BME280;12954;50.688;10.908;2023-03-26T04:33:51;94640.56;;;5.35;62.58
24892;BME280;12954;50.688;10.908;2023-03-26T04:36:24;94614.38;;;5.12;62.57
24892;BME280;12954;50.688;10.908;2023-03-26T04:38:56;94635.25;;;5.15;63.17
24892;BME280;12954;50.688;10.908;2023-03-26T04:41:28;94629.06;;;5.20;62.97
24892;BME280;12954;50.688;10.908;2023-03-26T04:43:58;94620.28;;;5.09;63.57
24892;BME280;12954;50.688;10.908;2023-03-26T04:46:28;94613.34;;;4.98;63.65
24892;BME280;12954;50.688;10.908;2023-03-26T04:48:59;94606.91;;;5.09;63.68
24892;BME280;12954;50.688;10.908;2023-03-26T04:51:34;94610.13;;;5.06;63.26
24892;BME280;12954;50.688;10.908;2023-03-26T04:54:07;94605.06;;;4.94;63.67
24892;BME280;12954;50.688;10.908;2023-03-26T04:56:40;94603.69;;;5.02;63.50
24892;BME280;12954;50.688;10.908;2023-03-26T04:59:14;94607.19;;;5.02;63.57
24892;BME280;12954;50.688;10.908;2023-03-26T05:01:43;94600.19;;;5.17;63.03
24892;BME280;12954;50.688;10.908;2023-03-26T05:04:12;94585.78;;;5.08;62.93
24892;BME280;12954;50.688;10.908;2023-03-26T05:06:41;94577.25;;;4.95;63.09
24892;BME280;12954;50.688;10.908;2023-03-26T05:09:11;94588.19;;;5.09;62.78
24892;BME280;12954;50.688;10.908;2023-03-26T05:11:40;94590.34;;;5.02;62.84
24892;BME280;12954;50.688;10.908;2023-03-26T05:14:08;94586.34;;;4.99;62.88
24892;BME280;12954;50.688;10.908;2023-03-26T05:16:37;94536.66;;;4.73;62.82
24892;BME280;12954;50.688;10.908;2023-03-26T05:19:07;94541.47;;;4.66;62.75
24892;BME280;12954;50.688;10.908;2023-03-26T05:21:35;94565.78;;;4.85;62.88
24892;BME280;12954;50.688;10.908;2023-03-26T05:24:04;94582.03;;;4.98;62.71
24892;BME280;12954;50.688;10.908;2023-03-26T05:26:35;94583.41;;;4.91;62.83
24892;BME280;12954;50.688;10.908;2023-03-26T05:29:04;94577.53;;;4.89;62.96
24892;BME280;12954;50.688;10.908;2023-03-26T05:31:32;94579.13;;;4.90;63.11
24892;BME280;12954;50.688;10.908;2023-03-26T05:34:00;94569.78;;;4.97;62.52
24892;BME280;12954;50.688;10.908;2023-03-26T05:36:29;94583.38;;;4.96;62.75
24892;BME280;12954;50.688;10.908;2023-03-26T05:38:57;94561.50;;;4.89;62.67
24892;BME280;12954;50.688;10.908;2023-03-26T05:41:26;94564.69;;;5.01;62.29
24892;BME280;12954;50.688;10.908;2023-03-26T05:43:56;94563.06;;;5.05;61.97
24892;BME280;12954;50.688;10.908;2023-03-26T05:46:25;94568.44;;;4.90;62.37
24892;BME280;12954;50.688;10.908;2023-03-26T05:48:53;94570.56;;;4.88;62.30
24892;BME280;12954;50.688;10.908;2023-03-26T05:51:21;94551.38;;;4.66;63.10
24892;BME280;12954;50.688;10.908;2023-03-26T05:53:50;94540.94;;;4.69;62.76
24892;BME280;12954;50.688;10.908;2023-03-26T05:56:18;94572.72;;;4.86;62.91
24892;BME280;12954;50.688;10.908;2023-03-26T05:58:47;94563.09;;;4.95;62.74
24892;BME280;12954;50.688;10.908;2023-03-26T06:01:19;94534.78;;;4.79;62.38
24892;BME280;12954;50.688;10.908;2023-03-26T06:03:48;94543.31;;;4.81;62.51
24892;BME280;12954;50.688;10.908;2023-03-26T06:06:19;94551.31;;;5.06;62.11
24892;BME280;12954;50.688;10.908;2023-03-26T06:08:49;94541.97;;;4.93;62.52
24892;BME280;12954;50.688;10.908;2023-03-26T06:11:29;94539.81;;;4.95;62.36
24892;BME280;12954;50.688;10.908;2023-03-26T06:13:58;94510.72;;;4.84;62.21
24892;BME280;12954;50.688;10.908;2023-03-26T06:16:28;94525.94;;;4.98;62.02
24892;BME280;12954;50.688;10.908;2023-03-26T06:18:56;94530.75;;;5.07;62.20
24892;BME280;12954;50.688;10.908;2023-03-26T06:21:25;94532.06;;;4.99;62.24
24892;BME280;12954;50.688;10.908;2023-03-26T06:23:54;94517.38;;;5.07;61.84
24892;BME280;12954;50.688;10.908;2023-03-26T06:26:23;94528.81;;;5.22;61.35
24892;BME280;12954;50.688;10.908;2023-03-26T06:28:51;94535.28;;;5.06;61.76
24892;BME280;12954;50.688;10.908;2023-03-26T06:31:19;94535.00;;;5.08;61.82
24892;BME280;12954;50.688;10.908;2023-03-26T06:33:49;94532.31;;;5.08;61.94
24892;BME280;12954;50.688;10.908;2023-03-26T06:36:17;94528.88;;;5.02;62.26
24892;BME280;12954;50.688;10.908;2023-03-26T06:38:46;94520.28;;;5.15;61.93
24892;BME280;12954;50.688;10.908;2023-03-26T06:41:14;94519.22;;;5.21;61.91
24892;BME280;12954;50.688;10.908;2023-03-26T06:43:43;94523.22;;;5.19;62.11
24892;BME280;12954;50.688;10.908;2023-03-26T06:46:11;94506.38;;;5.18;62.45
24892;BME280;12954;50.688;10.908;2023-03-26T06:48:40;94496.72;;;5.27;61.93
24892;BME280;12954;50.688;10.908;2023-03-26T06:51:10;94487.63;;;5.33;61.71
24892;BME280;12954;50.688;10.908;2023-03-26T06:53:38;94500.31;;;5.62;61.35
24892;BME280;12954;50.688;10.908;2023-03-26T06:56:08;94500.91;;;5.53;61.39
24892;BME280;12954;50.688;10.908;2023-03-26T06:58:36;94498.22;;;5.53;61.71
24892;BME280;12954;50.688;10.908;2023-03-26T07:01:05;94349.09;;;4.81;60.30
24892;BME280;12954;50.688;10.908;2023-03-26T07:03:33;94490.03;;;5.84;59.79
24892;BME280;12954;50.688;10.908;2023-03-26T07:06:02;94496.53;;;5.73;60.04
24892;BME280;12954;50.688;10.908;2023-03-26T07:08:32;94502.97;;;5.67;60.10
24892;BME280;12954;50.688;10.908;2023-03-26T07:11:00;94499.56;;;5.56;60.73
24892;BME280;12954;50.688;10.908;2023-03-26T07:13:29;94491.41;;;5.76;60.09
24892;BME280;12954;50.688;10.908;2023-03-26T07:15:57;94491.69;;;5.80;59.71
24892;BME280;12954;50.688;10.908;2023-03-26T07:18:26;94490.56;;;5.81;59.62
24892;BME280;12954;50.688;10.908;2023-03-26T07:20:55;94488.97;;;5.85;59.11
24892;BME280;12954;50.688;10.908;2023-03-26T07:23:24;94489.34;;;5.68;59.77
24892;BME280;12954;50.688;10.908;2023-03-26T07:25:55;94486.66;;;5.63;60.41
24892;BME280;12954;50.688;10.908;2023-03-26T07:28:32;94440.53;;;5.37;60.44
24892;BME280;12954;50.688;10.908;2023-03-26T07:31:09;94484.88;;;5.92;60.07
24892;BME280;12954;50.688;10.908;2023-03-26T07:33:45;94486.25;;;5.90;60.00
24892;BME280;12954;50.688;10.908;2023-03-26T07:36:22;94482.75;;;5.94;60.12
24892;BME280;12954;50.688;10.908;2023-03-26T07:39:04;94422.31;;;5.39;60.48
24892;BME280;12954;50.688;10.908;2023-03-26T07:41:44;94483.09;;;5.78;60.64
24892;BME280;12954;50.688;10.908;2023-03-26T07:44:30;94484.88;;;5.92;60.48
24892;BME280;12954;50.688;10.908;2023-03-26T07:47:09;94481.41;;;5.97;60.47
24892;BME280;12954;50.688;10.908;2023-03-26T07:49:46;94483.06;;;5.88;61.06
24892;BME280;12954;50.688;10.908;2023-03-26T07:52:15;94479.28;;;5.94;61.39
24892;BME280;12954;50.688;10.908;2023-03-26T07:54:44;94468.28;;;5.95;61.14
24892;BME280;12954;50.688;10.908;2023-03-26T07:57:19;94477.81;;;6.11;61.23
24892;BME280;12954;50.688;10.908;2023-03-26T07:59:55;94487.44;;;6.18;61.20
24892;BME280;12954;50.688;10.908;2023-03-26T08:02:38;94478.59;;;6.17;60.88
24892;BME280;12954;50.688;10.908;2023-03-26T08:05:15;94473.44;;;6.26;61.26
24892;BME280;12954;50.688;10.908;2023-03-26T08:07:55;94482.28;;;6.26;61.30
24892;BME280;12954;50.688;10.908;2023-03-26T08:10:30;94487.66;;;6.26;61.28
24892;BME280;12954;50.688;10.908;2023-03-26T08:13:09;94481.72;;;6.29;61.33
24892;BME280;12954;50.688;10.908;2023-03-26T08:15:46;94471.28;;;6.28;60.90
24892;BME280;12954;50.688;10.908;2023-03-26T08:18:28;94466.97;;;6.32;61.05
24892;BME280;12954;50.688;10.908;2023-03-26T08:21:01;94472.66;;;6.25;61.07
24892;BME280;12954;50.688;10.908;2023-03-26T08:23:35;94471.28;;;6.28;61.25
24892;BME280;12954;50.688;10.908;2023-03-26T08:26:25;94456.81;;;6.29;61.18
24892;BME280;12954;50.688;10.908;2023-03-26T08:29:05;94464.59;;;6.30;61.13
24892;BME280;12954;50.688;10.908;2023-03-26T08:31:39;94453.88;;;6.30;61.32
24892;BME280;12954;50.688;10.908;2023-03-26T08:34:10;94447.91;;;6.38;61.08
24892;BME280;12954;50.688;10.908;2023-03-26T08:36:38;94435.53;;;6.42;61.05
24892;BME280;12954;50.688;10.908;2023-03-26T08:39:07;94433.06;;;6.51;60.68
24892;BME280;12954;50.688;10.908;2023-03-26T08:42:02;94423.69;;;6.53;60.78
24892;BME280;12954;50.688;10.908;2023-03-26T08:48:07;94431.03;;;6.66;60.57
24892;BME280;12954;50.688;10.908;2023-03-26T08:51:24;94428.88;;;6.68;60.50
24892;BME280;12954;50.688;10.908;2023-03-26T08:54:25;94424.53;;;6.73;60.38
24892;BME280;12954;50.688;10.908;2023-03-26T08:57:11;94417.81;;;6.75;60.27
24892;BME280;12954;50.688;10.908;2023-03-26T09:03:26;94417.81;;;6.99;59.70
24892;BME280;12954;50.688;10.908;2023-03-26T09:09:50;94416.25;;;6.98;59.21
24892;BME280;12954;50.688;10.908;2023-03-26T09:12:58;94409.28;;;6.97;59.36
24892;BME280;12954;50.688;10.908;2023-03-26T09:16:07;94409.50;;;7.00;59.35
24892;BME280;12954;50.688;10.908;2023-03-26T09:19:10;94407.00;;;7.09;59.47
24892;BME280;12954;50.688;10.908;2023-03-26T09:25:17;94368.56;;;6.95;58.67
24892;BME280;12954;50.688;10.908;2023-03-26T09:31:10;94405.13;;;7.28;58.76
24892;BME280;12954;50.688;10.908;2023-03-26T09:34:10;94399.78;;;7.28;58.69
24892;BME280;12954;50.688;10.908;2023-03-26T09:36:54;94385.63;;;7.22;58.67
24892;BME280;12954;50.688;10.908;2023-03-26T09:39:34;94388.47;;;7.31;58.40
24892;BME280;12954;50.688;10.908;2023-03-26T09:42:10;94383.56;;;7.38;58.38
24892;BME280;12954;50.688;10.908;2023-03-26T09:54:09;94368.47;;;7.42;58.24
24892;BME280;12954;50.688;10.908;2023-03-26T09:56:49;94364.63;;;7.48;58.10
24892;BME280;12954;50.688;10.908;2023-03-26T09:59:37;94361.75;;;7.45;57.82
24892;BME280;12954;50.688;10.908;2023-03-26T10:02:23;94354.09;;;7.33;57.72
24892;BME280;12954;50.688;10.908;2023-03-26T10:05:26;94363.31;;;7.46;58.00
24892;BME280;12954;50.688;10.908;2023-03-26T10:08:11;94353.63;;;7.50;58.04
24892;BME280;12954;50.688;10.908;2023-03-26T10:10:51;94351.22;;;7.48;58.13
24892;BME280;12954;50.688;10.908;2023-03-26T10:13:29;94351.22;;;7.48;58.17
24892;BME280;12954;50.688;10.908;2023-03-26T10:16:11;94311.84;;;7.25;58.22
24892;BME280;12954;50.688;10.908;2023-03-26T10:18:52;94295.38;;;7.13;58.13
24892;BME280;12954;50.688;10.908;2023-03-26T10:21:31;94302.34;;;7.14;58.41
24892;BME280;12954;50.688;10.908;2023-03-26T10:24:21;94295.53;;;7.03;58.23
24892;BME280;12954;50.688;10.908;2023-03-26T10:27:04;94333.25;;;7.30;58.36
24892;BME280;12954;50.688;10.908;2023-03-26T10:30:00;94313.53;;;7.21;58.40
24892;BME280;12954;50.688;10.908;2023-03-26T10:32:35;94333.81;;;7.27;58.52
24892;BME280;12954;50.688;10.908;2023-03-26T10:35:20;94339.09;;;7.32;58.71
24892;BME280;12954;50.688;10.908;2023-03-26T10:38:03;94347.81;;;7.43;58.54
24892;BME280;12954;50.688;10.908;2023-03-26T10:40:42;94342.44;;;7.43;58.77
24892;BME280;12954;50.688;10.908;2023-03-26T10:49:40;94323.97;;;7.41;58.45
24892;BME280;12954;50.688;10.908;2023-03-26T10:52:17;94337.06;;;7.43;58.65
24892;BME280;12954;50.688;10.908;2023-03-26T10:54:54;94335.50;;;7.42;58.33
24892;BME280;12954;50.688;10.908;2023-03-26T10:57:33;94312.38;;;7.27;58.57
24892;BME280;12954;50.688;10.908;2023-03-26T11:00:13;94322.78;;;7.29;58.75
24892;BME280;12954;50.688;10.908;2023-03-26T11:02:46;94327.06;;;7.30;59.00
24892;BME280;12954;50.688;10.908;2023-03-26T11:05:30;94321.41;;;7.31;58.96
24892;BME280;12954;50.688;10.908;2023-03-26T11:08:09;94315.91;;;7.22;58.95
24892;BME280;12954;50.688;10.908;2023-03-26T11:10:48;94323.66;;;7.24;59.05
24892;BME280;12954;50.688;10.908;2023-03-26T11:13:26;94321.72;;;7.30;58.87
24892;BME280;12954;50.688;10.908;2023-03-26T11:16:02;94318.31;;;7.24;59.15
24892;BME280;12954;50.688;10.908;2023-03-26T11:18:37;94280.03;;;7.00;59.31
24892;BME280;12954;50.688;10.908;2023-03-26T11:21:13;94320.47;;;7.22;59.40
24892;BME280;12954;50.688;10.908;2023-03-26T11:24:00;94315.63;;;7.24;59.25
24892;BME280;12954;50.688;10.908;2023-03-26T11:26:42;94312.41;;;7.22;59.33
24892;BME280;12954;50.688;10.908;2023-03-26T11:29:38;94325.59;;;7.18;59.46
24892;BME280;12954;50.688;10.908;2023-03-26T11:32:14;94316.34;;;7.11;59.52
24892;BME280;12954;50.688;10.908;2023-03-26T11:34:50;94295.28;;;6.81;59.52
24892;BME280;12954;50.688;10.908;2023-03-26T11:37:28;94314.00;;;7.04;59.72
24892;BME280;12954;50.688;10.908;2023-03-26T11:40:01;94308.78;;;6.94;59.97
24892;BME280;12954;50.688;10.908;2023-03-26T11:42:33;94302.75;;;6.84;59.92
24892;BME280;12954;50.688;10.908;2023-03-26T11:45:05;94304.13;;;6.81;59.91
24892;BME280;12954;50.688;10.908;2023-03-26T11:47:39;94309.25;;;6.78;60.04
24892;BME280;12954;50.688;10.908;2023-03-26T11:50:14;94305.03;;;6.72;60.32
24892;BME280;12954;50.688;10.908;2023-03-26T11:52:43;94311.75;;;6.69;60.26
24892;BME280;12954;50.688;10.908;2023-03-26T11:55:12;94287.16;;;6.43;60.29
24892;BME280;12954;50.688;10.908;2023-03-26T11:57:46;94310.84;;;6.55;60.12
24892;BME280;12954;50.688;10.908;2023-03-26T12:00:21;94307.94;;;6.51;60.15
24892;BME280;12954;50.688;10.908;2023-03-26T12:02:56;94312.81;;;6.49;60.47
24892;BME280;12954;50.688;10.908;2023-03-26T12:05:27;94297.06;;;6.43;60.39
24892;BME280;12954;50.688;10.908;2023-03-26T12:08:00;94301.00;;;6.50;59.73
24892;BME280;12954;50.688;10.908;2023-03-26T12:10:32;94304.03;;;6.44;59.78
24892;BME280;12954;50.688;10.908;2023-03-26T12:13:23;94294.78;;;6.31;59.89
24892;BME280;12954;50.688;10.908;2023-03-26T12:16:02;94256.75;;;6.05;60.00
24892;BME280;12954;50.688;10.908;2023-03-26T12:18:31;94275.13;;;6.17;59.97
24892;BME280;12954;50.688;10.908;2023-03-26T12:21:05;94283.72;;;6.14;60.14
24892;BME280;12954;50.688;10.908;2023-03-26T12:23:41;94281.03;;;6.14;60.32
24892;BME280;12954;50.688;10.908;2023-03-26T12:26:15;94277.84;;;6.12;60.13
24892;BME280;12954;50.688;10.908;2023-03-26T12:28:45;94268.69;;;6.18;59.93
24892;BME280;12954;50.688;10.908;2023-03-26T12:31:17;94275.63;;;6.19;60.02
24892;BME280;12954;50.688;10.908;2023-03-26T12:34:03;94256.44;;;6.07;60.38
24892;BME280;12954;50.688;10.908;2023-03-26T12:36:35;94265.34;;;6.02;60.70
24892;BME280;12954;50.688;10.908;2023-03-26T12:39:26;94267.78;;;5.99;60.68
24892;BME280;12954;50.688;10.908;2023-03-26T12:42:25;94265.91;;;5.99;60.64
24892;BME280;12954;50.688;10.908;2023-03-26T12:45:13;94258.50;;;5.91;60.63
24892;BME280;12954;50.688;10.908;2023-03-26T12:47:43;94266.53;;;5.91;60.87
24892;BME280;12954;50.688;10.908;2023-03-26T12:50:35;94267.34;;;5.92;60.90
24892;BME280;12954;50.688;10.908;2023-03-26T12:53:28;94264.34;;;5.93;60.77
24892;BME280;12954;50.688;10.908;2023-03-26T12:56:08;94265.78;;;5.86;60.94
24892;BME280;12954;50.688;10.908;2023-03-26T12:58:58;94243.91;;;5.79;61.05
24892;BME280;12954;50.688;10.908;2023-03-26T13:01:43;94246.25;;;5.85;61.18
24892;BME280;12954;50.688;10.908;2023-03-26T13:04:38;94248.59;;;5.92;60.92
24892;BME280;12954;50.688;10.908;2023-03-26T13:07:30;94239.75;;;5.91;61.06
24892;BME280;12954;50.688;10.908;2023-03-26T13:10:22;94220.69;;;5.98;61.21
24892;BME280;12954;50.688;10.908;2023-03-26T13:13:02;94170.41;;;5.71;61.52
24892;BME280;12954;50.688;10.908;2023-03-26T13:15:36;94216.25;;;6.12;61.39
24892;BME280;12954;50.688;10.908;2023-03-26T13:18:17;94209.66;;;6.28;61.32
24892;BME280;12954;50.688;10.908;2023-03-26T13:20:53;94212.72;;;6.40;61.61
24892;BME280;12954;50.688;10.908;2023-03-26T13:23:30;94207.19;;;6.55;61.33
24892;BME280;12954;50.688;10.908;2023-03-26T13:26:13;94208.56;;;6.72;61.30
24892;BME280;12954;50.688;10.908;2023-03-26T13:28:52;94214.59;;;6.82;60.98
24892;BME280;12954;50.688;10.908;2023-03-26T13:31:28;94216.16;;;6.83;61.02
24892;BME280;12954;50.688;10.908;2023-03-26T13:34:09;94207.94;;;6.80;61.37
24892;BME280;12954;50.688;10.908;2023-03-26T13:36:50;94175.97;;;6.64;61.55
24892;BME280;12954;50.688;10.908;2023-03-26T13:39:28;94186.28;;;6.95;61.42
24892;BME280;12954;50.688;10.908;2023-03-26T13:42:09;94174.63;;;6.86;61.39
24892;BME280;12954;50.688;10.908;2023-03-26T13:44:51;94199.09;;;6.98;61.72
24892;BME280;12954;50.688;10.908;2023-03-26T13:47:32;94184.81;;;7.02;61.86
24892;BME280;12954;50.688;10.908;2023-03-26T13:50:12;94180.16;;;7.08;61.66
24892;BME280;12954;50.688;10.908;2023-03-26T13:52:46;94174.13;;;7.16;62.02
24892;BME280;12954;50.688;10.908;2023-03-26T13:55:21;94163.84;;;7.23;62.20
24892;BME280;12954;50.688;10.908;2023-03-26T13:57:59;94133.31;;;7.19;61.86
24892;BME280;12954;50.688;10.908;2023-03-26T14:00:44;94171.69;;;7.33;62.23
24892;BME280;12954;50.688;10.908;2023-03-26T14:03:17;94163.50;;;7.43;62.12
24892;BME280;12954;50.688;10.908;2023-03-26T14:05:53;94173.47;;;7.56;61.30
24892;BME280;12954;50.688;10.908;2023-03-26T14:08:27;94167.59;;;7.54;61.57
24892;BME280;12954;50.688;10.908;2023-03-26T14:11:03;94155.47;;;7.57;61.56
24892;BME280;12954;50.688;10.908;2023-03-26T14:13:40;94154.09;;;7.59;61.36